Time;durP1;ratioP1;P1;durP2;ratioP2;P2;SDS_P1;SDS_P2;PMS_P1;PMS_P2;Temp;Humidity;BMP_temperature;BMP_pressure;BME280_temperature;BME280_humidity;BME280_pressure;Samples;Min_cycle;Max_cycle;Signal;HPM_P1;HPM_P2
2022/11/23 05:00:51;;;;;;;3.30;1.38;;;7.20;99.90;;;;;;5654063;23;20049;-69
2022/11/23 05:03:17;;;;;;;5.40;1.40;;;7.30;99.90;;;;;;4899245;29;20029;-69
2022/11/23 05:05:42;;;;;;;2.90;1.40;;;7.40;99.90;;;;;;4900960;29;20032;-69
2022/11/23 05:08:08;;;;;;;5.77;1.33;;;7.40;99.90;;;;;;4900459;29;20032;-69
2022/11/23 05:10:34;;;;;;;9.10;1.47;;;7.40;99.90;;;;;;4900032;29;20099;-69
2022/11/23 05:13:00;;;;;;;8.13;1.48;;;7.40;99.90;;;;;;4924376;23;20060;-70
2022/11/23 05:15:26;;;;;;;10.00;2.10;;;7.30;99.90;;;;;;4917633;29;20040;-70
2022/11/23 05:17:51;;;;;;;8.70;1.63;;;7.30;99.90;;;;;;4918562;29;20481;-70
2022/11/23 05:20:17;;;;;;;3.87;1.67;;;7.30;99.90;;;;;;4921149;29;20024;-71
2022/11/23 05:22:43;;;;;;;7.47;1.50;;;7.20;99.90;;;;;;4918297;29;20489;-70
2022/11/23 05:25:08;;;;;;;7.87;1.60;;;7.20;99.90;;;;;;4901437;29;20276;-70
2022/11/23 05:27:34;;;;;;;6.07;1.23;;;7.10;99.90;;;;;;4899110;29;20032;-71
2022/11/23 05:30:00;;;;;;;7.40;1.43;;;7.10;99.90;;;;;;4900201;29;20032;-71
2022/11/23 05:32:26;;;;;;;5.72;1.60;;;7.10;99.90;;;;;;4887986;29;20278;-71
2022/11/23 05:34:51;;;;;;;4.53;1.60;;;7.10;99.90;;;;;;4880112;29;20032;-71
2022/11/23 05:37:17;;;;;;;9.03;2.23;;;7.00;99.90;;;;;;4895886;29;20262;-70
2022/11/23 05:39:42;;;;;;;7.87;1.93;;;7.00;99.90;;;;;;4880405;29;20113;-70
2022/11/23 05:42:08;;;;;;;7.47;1.87;;;7.00;99.90;;;;;;4895897;29;20031;-68
2022/11/23 05:44:33;;;;;;;7.50;1.63;;;6.80;99.90;;;;;;4895313;29;20025;-70
2022/11/23 05:46:59;;;;;;;4.80;1.60;;;6.70;99.90;;;;;;4897762;29;20044;-72
2022/11/23 05:49:25;;;;;;;7.18;1.70;;;6.80;99.90;;;;;;4898273;29;20093;-72
2022/11/23 05:51:51;;;;;;;5.95;1.88;;;6.70;99.90;;;;;;4895160;29;20033;-71
2022/11/23 05:54:16;;;;;;;4.37;2.60;;;6.60;99.90;;;;;;4895423;29;20060;-72
2022/11/23 05:56:43;;;;;;;21.30;12.27;;;6.50;99.90;;;;;;4898417;29;20036;-72
2022/11/23 05:59:10;;;;;;;;;;;6.40;99.90;;;;;;4898641;29;20029;-71
2022/11/23 06:01:35;;;;;;;5.95;2.17;;;6.50;99.90;;;;;;4900585;29;19936;-71
2022/11/23 06:04:01;;;;;;;5.87;2.10;;;6.40;99.90;;;;;;4903534;29;20033;-70
2022/11/23 06:06:26;;;;;;;7.77;1.97;;;6.60;99.90;;;;;;4890607;29;20096;-70
2022/11/23 06:08:52;;;;;;;5.23;1.83;;;6.50;99.90;;;;;;4880414;29;20037;-73
2022/11/23 06:11:18;;;;;;;11.50;3.20;;;6.50;99.90;;;;;;4896667;29;20023;-72
2022/11/23 06:13:46;;;;;;;8.90;2.57;;;6.40;99.90;;;;;;4894923;29;20116;-71
2022/11/23 06:16:12;;;;;;;10.38;3.30;;;6.40;99.90;;;;;;4913543;29;20056;-73
2022/11/23 06:18:37;;;;;;;11.00;5.57;;;6.40;99.90;;;;;;4898159;29;20309;-71
2022/11/23 06:21:03;;;;;;;7.00;1.87;;;6.50;99.90;;;;;;4898059;29;20120;-72
2022/11/23 06:23:28;;;;;;;9.07;2.13;;;6.40;99.90;;;;;;4899184;29;20037;-71
2022/11/23 06:25:54;;;;;;;10.73;2.37;;;6.30;99.90;;;;;;4899323;29;20493;-72
2022/11/23 06:28:20;;;;;;;6.83;1.93;;;6.30;99.90;;;;;;4886128;29;20489;-72
2022/11/23 06:30:45;;;;;;;5.50;1.70;;;6.30;99.90;;;;;;4894827;29;20078;-71
2022/11/23 06:33:11;;;;;;;5.30;2.00;;;6.30;99.90;;;;;;4883005;29;20378;-72
2022/11/23 06:35:36;;;;;;;7.60;2.80;;;6.20;99.90;;;;;;4897281;29;20036;-72
2022/11/23 06:38:02;;;;;;;8.60;2.20;;;6.20;99.90;;;;;;4898984;29;20375;-72
2022/11/23 06:40:28;;;;;;;7.00;1.70;;;6.10;99.90;;;;;;4898671;29;20470;-71
2022/11/23 06:43:00;;;;;;;12.83;2.90;;;6.10;99.90;;;;;;4897800;29;20037;-72
2022/11/23 06:45:26;;;;;;;7.13;2.55;;;6.20;99.90;;;;;;4898553;29;20032;-72
2022/11/23 06:47:55;;;;;;;6.80;2.70;;;6.10;99.90;;;;;;4901601;29;20020;-72
2022/11/23 06:50:20;;;;;;;7.65;2.42;;;6.10;99.90;;;;;;4900982;29;20029;-73
2022/11/23 06:52:47;;;;;;;7.47;2.77;;;6.20;99.90;;;;;;4898984;29;20401;-72
2022/11/23 06:55:12;;;;;;;;;;;6.20;99.90;;;;;;4898657;29;20107;-72
2022/11/23 06:57:38;;;;;;;7.47;2.47;;;6.20;99.90;;;;;;4897187;29;20340;-71
2022/11/23 07:00:04;;;;;;;11.07;3.13;;;6.20;99.90;;;;;;4913689;29;20029;-71
2022/11/23 07:02:30;;;;;;;8.25;2.30;;;6.20;99.90;;;;;;4913847;29;20084;-72
2022/11/23 07:04:55;;;;;;;7.43;2.50;;;6.20;99.90;;;;;;4897115;29;20032;-71
2022/11/23 07:07:21;;;;;;;8.67;2.50;;;6.20;99.90;;;;;;4898756;29;20088;-72
2022/11/23 07:09:46;;;;;;;6.93;2.33;;;6.20;99.90;;;;;;4897378;29;20457;-72
2022/11/23 07:12:12;;;;;;;11.50;2.97;;;6.10;99.90;;;;;;4898994;29;20080;-72
2022/11/23 07:14:38;;;;;;;12.90;2.97;;;6.00;99.90;;;;;;4897133;29;20153;-72
2022/11/23 07:17:03;;;;;;;7.53;2.63;;;6.20;99.90;;;;;;4897557;29;20546;-72
2022/11/23 07:19:29;;;;;;;11.70;2.50;;;6.20;99.90;;;;;;4897047;29;20029;-71
2022/11/23 07:21:54;;;;;;;9.77;3.77;;;6.30;99.90;;;;;;4899835;29;20025;-72
2022/11/23 07:24:20;;;;;;;7.20;2.60;;;6.40;99.90;;;;;;4899829;29;20028;-73
2022/11/23 07:26:45;;;;;;;11.43;3.17;;;6.40;99.90;;;;;;4914466;29;20040;-73
2022/11/23 07:29:11;;;;;;;9.53;2.77;;;6.40;99.90;;;;;;4915302;29;20032;-72
2022/11/23 07:31:37;;;;;;;13.37;3.00;;;6.40;99.90;;;;;;4899864;29;20401;-72
2022/11/23 07:34:03;;;;;;;11.10;3.57;;;6.30;99.90;;;;;;4898257;29;20029;-72
2022/11/23 07:36:29;;;;;;;8.75;3.42;;;6.30;99.90;;;;;;4896449;29;20442;-72
2022/11/23 07:38:54;;;;;;;11.10;3.30;;;6.20;99.90;;;;;;4897965;29;20104;-72
2022/11/23 07:41:20;;;;;;;12.77;3.23;;;6.20;99.90;;;;;;4896738;29;20056;-71
2022/11/23 07:43:46;;;;;;;7.95;3.13;;;6.30;99.90;;;;;;4896974;29;20507;-72
2022/11/23 07:46:12;;;;;;;11.20;3.63;;;6.40;99.90;;;;;;4890790;29;20068;-73
2022/11/23 07:48:37;;;;;;;9.23;3.83;;;6.40;99.90;;;;;;4907981;29;20488;-72
2022/11/23 07:51:03;;;;;;;10.90;3.43;;;6.20;99.90;;;;;;4906223;29;20045;-72
2022/11/23 07:53:28;;;;;;;18.33;4.33;;;6.40;99.90;;;;;;4914124;29;20533;-71
2022/11/23 07:55:57;;;;;;;7.83;3.03;;;6.30;99.90;;;;;;4896613;29;20533;-71
2022/11/23 07:58:24;;;;;;;13.38;4.00;;;6.40;99.90;;;;;;4900348;29;20036;-71
2022/11/23 08:00:49;;;;;;;15.75;5.25;;;6.40;99.90;;;;;;4887050;29;20070;-72
2022/11/23 08:03:15;;;;;;;14.80;5.70;;;6.30;99.90;;;;;;4896901;29;20176;-72
2022/11/23 08:05:41;;;;;;;18.07;4.97;;;6.40;99.90;;;;;;4900103;29;20057;-72
2022/11/23 08:08:06;;;;;;;13.07;3.72;;;6.40;99.90;;;;;;4899896;29;20462;-71
2022/11/23 08:10:32;;;;;;;13.73;4.03;;;6.40;99.90;;;;;;4900074;29;20141;-71
2022/11/23 08:13:03;;;;;;;14.23;4.43;;;6.50;99.90;;;;;;4898664;29;20037;-71
2022/11/23 08:15:28;;;;;;;10.10;3.60;;;6.60;99.90;;;;;;4901792;29;20053;-70
2022/11/23 08:17:59;;;;;;;10.37;3.53;;;6.50;99.90;;;;;;4900692;29;20033;-72
2022/11/23 08:20:25;;;;;;;12.63;3.30;;;6.60;99.90;;;;;;4900241;29;20032;-71
2022/11/23 08:22:51;;;;;;;8.45;2.80;;;6.60;99.90;;;;;;4900505;29;20036;-72
2022/11/23 08:25:17;;;;;;;10.18;3.03;;;6.70;99.90;;;;;;4900107;29;20033;-71
2022/11/23 08:27:43;;;;;;;8.05;2.67;;;6.70;99.90;;;;;;4899865;29;20435;-72
2022/11/23 08:30:09;;;;;;;9.47;2.57;;;6.80;99.90;;;;;;4900908;29;20028;-72
2022/11/23 08:32:39;;;;;;;10.25;2.92;;;6.80;99.90;;;;;;4900609;29;20387;-71
2022/11/23 08:35:05;;;;;;;8.68;2.58;;;6.90;99.90;;;;;;4899435;29;20060;-72
2022/11/23 08:37:31;;;;;;;10.80;2.90;;;7.10;99.90;;;;;;4901356;29;20084;-72
2022/11/23 08:39:56;;;;;;;8.93;2.50;;;7.30;99.90;;;;;;4900230;29;20139;-73
2022/11/23 08:42:22;;;;;;;10.10;3.00;;;7.40;99.90;;;;;;4899519;29;20036;-73
2022/11/23 08:44:47;;;;;;;4.80;2.20;;;7.40;99.90;;;;;;4900323;29;20521;-72
2022/11/23 08:47:13;;;;;;;7.70;2.50;;;7.50;99.90;;;;;;4901241;29;20745;-71
2022/11/23 08:49:39;;;;;;;7.37;2.43;;;7.40;99.90;;;;;;4899682;29;20028;-72
2022/11/23 08:52:04;;;;;;;9.97;3.00;;;7.40;99.90;;;;;;4900862;29;20119;-71
2022/11/23 08:54:31;;;;;;;6.93;2.47;;;7.40;99.90;;;;;;4900042;29;20036;-72
2022/11/23 08:56:56;;;;;;;10.98;3.60;;;7.40;99.90;;;;;;4899894;29;20040;-72
2022/11/23 08:59:22;;;;;;;6.93;2.90;;;7.40;99.90;;;;;;4900121;29;20039;-72
2022/11/23 09:01:47;;;;;;;14.33;4.57;;;7.50;99.90;;;;;;4900953;29;20031;-71
2022/11/23 09:04:13;;;;;;;13.07;3.80;;;7.70;99.90;;;;;;4900756;29;20036;-70
2022/11/23 09:06:39;;;;;;;7.60;2.43;;;7.70;99.90;;;;;;4900676;29;20084;-71
2022/11/23 09:09:04;;;;;;;7.63;2.30;;;7.80;99.90;;;;;;4901326;29;20025;-71
2022/11/23 09:11:30;;;;;;;10.37;2.50;;;7.80;99.90;;;;;;4901407;29;20081;-72
2022/11/23 09:13:55;;;;;;;21.50;6.03;;;7.90;99.90;;;;;;4898142;29;20033;-72
2022/11/23 09:16:21;;;;;;;13.30;4.40;;;8.00;99.90;;;;;;4903858;29;20032;-71
2022/11/23 09:18:48;;;;;;;7.83;3.30;;;8.00;99.90;;;;;;4898979;29;20032;-71
2022/11/23 09:21:14;;;;;;;6.15;2.13;;;8.10;99.90;;;;;;4902367;29;20141;-67
2022/11/23 09:23:39;;;;;;;8.23;1.70;;;8.30;99.90;;;;;;4900208;29;20068;-68
2022/11/23 09:26:05;;;;;;;8.63;2.53;;;8.50;99.90;;;;;;4898821;29;20281;-68
2022/11/23 09:28:32;;;;;;;6.47;2.30;;;8.50;99.90;;;;;;4899430;29;20036;-67
2022/11/23 09:31:00;;;;;;;10.52;3.17;;;8.60;99.90;;;;;;4901103;29;20435;-67
2022/11/23 09:33:26;;;;;;;5.55;1.88;;;8.70;99.90;;;;;;4901325;29;20036;-66
2022/11/23 09:35:56;;;;;;;9.73;2.00;;;9.30;99.90;;;;;;4900801;29;20028;-66
2022/11/23 09:38:22;;;;;;;10.05;2.80;;;9.70;99.90;;;;;;4898833;29;20056;-67
2022/11/23 09:41:10;;;;;;;6.90;1.73;;;9.80;99.90;;;;;;4898741;29;20445;-69
2022/11/23 09:43:47;;;;;;;4.75;1.92;;;9.80;99.90;;;;;;4898381;29;20028;-68
2022/11/23 09:46:24;;;;;;;7.05;1.60;;;10.10;99.90;;;;;;4900133;29;20025;-70
2022/11/23 09:49:15;;;;;;;11.85;1.90;;;10.20;99.90;;;;;;4899356;29;20043;-70
2022/11/23 09:51:42;;;;;;;12.65;1.98;;;10.10;99.90;;;;;;4898860;29;20025;-72
2022/11/23 09:54:23;;;;;;;8.23;2.72;;;10.20;99.90;;;;;;4898416;29;20033;-71
2022/11/23 09:56:51;;;;;;;8.43;1.92;;;10.70;99.90;;;;;;4899607;29;20024;-72
2022/11/23 09:59:26;;;;;;;8.60;1.80;;;10.80;99.90;;;;;;4900001;29;20563;-70
2022/11/23 10:01:52;;;;;;;8.45;2.22;;;11.20;99.90;;;;;;4900239;29;20024;-70
2022/11/23 10:04:19;;;;;;;8.43;2.17;;;11.20;99.90;;;;;;4898156;29;20553;-71
2022/11/23 10:06:55;;;;;;;7.55;2.00;;;11.30;99.90;;;;;;4900411;29;20215;-71
2022/11/23 10:09:49;;;;;;;6.65;1.60;;;11.40;99.90;;;;;;4901430;29;20024;-71
2022/11/23 10:12:41;;;;;;;5.80;1.08;;;11.50;99.90;;;;;;4888952;29;20067;-71
2022/11/23 10:15:44;;;;;;;7.63;1.95;;;11.30;99.90;;;;;;4898568;29;20127;-72
2022/11/23 10:18:10;;;;;;;7.25;1.50;;;11.40;99.90;;;;;;4894565;29;20043;-71
2022/11/23 10:21:08;;;;;;;5.33;1.33;;;11.60;99.90;;;;;;4898414;29;20021;-72
2022/11/23 10:24:08;;;;;;;9.10;1.83;;;11.50;99.90;;;;;;4825076;29;20419;-71
2022/11/23 10:26:38;;;;;;;7.07;1.52;;;11.60;99.90;;;;;;4822659;29;20444;-71
2022/11/23 10:29:24;;;;;;;5.50;1.90;;;11.80;99.90;;;;;;4824270;29;20030;-71
2022/11/23 10:31:51;;;;;;;4.13;1.30;;;12.10;99.90;;;;;;4825170;29;20031;-71
2022/11/23 10:34:40;;;;;;;6.22;1.08;;;12.10;99.90;;;;;;4824271;29;20050;-71
2022/11/23 10:37:11;;;;;;;5.45;1.27;;;12.40;99.90;;;;;;4804842;29;20096;-71
2022/11/23 10:39:37;;;;;;;8.75;1.48;;;12.50;99.90;;;;;;4805500;29;20042;-71
2022/11/23 10:42:37;;;;;;;8.23;1.53;;;12.70;99.90;;;;;;4805380;29;20405;-71
2022/11/23 10:45:04;;;;;;;6.75;1.48;;;12.90;99.90;;;;;;4734397;30;20045;-72
2022/11/23 10:47:47;;;;;;;8.55;1.70;;;12.90;99.90;;;;;;4735283;30;20093;-71
2022/11/23 10:50:28;;;;;;;6.63;1.23;;;13.00;99.90;;;;;;4735139;30;20045;-72
2022/11/23 10:53:21;;;;;;;7.95;1.50;;;12.80;99.90;;;;;;4734388;30;20033;-70
2022/11/23 10:55:56;;;;;;;5.63;1.35;;;12.70;99.90;;;;;;4729664;30;20044;-71
2022/11/23 10:58:30;;;;;;;6.25;1.60;;;12.50;99.90;;;;;;4748159;29;20050;-71
2022/11/23 11:01:10;;;;;;;9.98;1.50;;;12.40;99.90;;;;;;4806451;29;20066;-71
2022/11/23 11:03:36;;;;;;;9.00;2.05;;;12.30;99.90;;;;;;4806223;29;20090;-71
2022/11/23 11:06:02;;;;;;;6.72;1.45;;;12.10;99.90;;;;;;4806128;29;20042;-70
2022/11/23 11:08:31;;;;;;;10.95;1.58;;;12.00;99.90;;;;;;4806242;29;20046;-71
2022/11/23 11:11:05;;;;;;;8.93;1.50;;;11.90;99.90;;;;;;4791627;29;20396;-68
2022/11/23 11:13:40;;;;;;;6.22;1.98;;;11.80;99.90;;;;;;4840120;23;20359;-67
2022/11/23 11:16:33;;;;;;;9.40;1.50;;;11.80;99.90;;;;;;4915662;29;20024;-68
2022/11/23 11:19:18;;;;;;;7.18;1.80;;;11.80;99.90;;;;;;4914838;29;20163;-68
2022/11/23 11:21:44;;;;;;;6.40;1.40;;;11.70;99.90;;;;;;4915566;29;20024;-68
2022/11/23 11:24:23;;;;;;;11.20;1.80;;;11.60;99.90;;;;;;4905984;29;20033;-68
2022/11/23 11:26:58;;;;;;;9.00;1.50;;;11.50;99.90;;;;;;4899041;29;20497;-68
2022/11/23 11:29:35;;;;;;;8.68;2.00;;;11.50;99.90;;;;;;4899806;29;20085;-68
2022/11/23 11:32:28;;;;;;;12.63;1.90;;;11.60;99.90;;;;;;4901778;29;20437;-67
2022/11/23 11:35:08;;;;;;;9.25;1.83;;;11.60;99.90;;;;;;4899846;29;20060;-67
2022/11/23 11:37:46;;;;;;;9.18;1.73;;;11.60;99.90;;;;;;4901887;29;20075;-69
2022/11/23 11:40:28;;;;;;;6.30;1.13;;;11.50;99.90;;;;;;4900523;29;20052;-68
2022/11/23 11:43:16;;;;;;;7.07;1.30;;;11.50;99.90;;;;;;4901642;29;20033;-68
2022/11/23 11:45:42;;;;;;;;;;;11.50;99.90;;;;;;4901422;29;20093;-67
2022/11/23 11:48:15;;;;;;;4.47;1.13;;;11.60;99.90;;;;;;4902364;29;19907;-68
2022/11/23 11:51:05;;;;;;;6.93;2.42;;;11.60;99.90;;;;;;4901798;29;20052;-69
2022/11/23 11:54:06;;;;;;;4.68;1.30;;;11.60;99.90;;;;;;4901841;29;20021;-67
2022/11/23 11:56:37;;;;;;;8.38;2.53;;;11.60;99.90;;;;;;4885659;29;20462;-69
2022/11/23 11:59:42;;;;;;;9.48;1.45;;;11.60;99.90;;;;;;4900359;29;20028;-68
2022/11/23 12:02:28;;;;;;;7.28;1.50;;;11.60;99.90;;;;;;4901451;29;20036;-67
2022/11/23 12:05:22;;;;;;;4.88;1.17;;;11.60;99.90;;;;;;4900342;29;20033;-70
2022/11/23 12:08:01;;;;;;;6.30;1.98;;;11.80;99.90;;;;;;4901285;29;20101;-68
2022/11/23 12:10:35;;;;;;;7.68;1.75;;;11.90;99.90;;;;;;4902937;29;20088;-69
2022/11/23 12:13:01;;;;;;;7.13;1.95;;;11.90;99.90;;;;;;4900593;29;20088;-68
2022/11/23 12:15:39;;;;;;;8.20;1.60;;;11.80;99.90;;;;;;4901224;29;20033;-68
2022/11/23 12:18:14;;;;;;;5.47;1.70;;;11.80;99.90;;;;;;4901542;29;20029;-69
2022/11/23 12:20:51;;;;;;;5.93;1.58;;;11.80;99.90;;;;;;4901693;29;20075;-70
2022/11/23 12:23:26;;;;;;;8.07;1.75;;;11.80;99.90;;;;;;4901347;29;20025;-69
2022/11/23 12:26:04;;;;;;;5.47;1.52;;;11.90;99.90;;;;;;4901343;29;20025;-69
2022/11/23 12:29:25;;;;;;;6.30;1.10;;;12.00;99.90;;;;;;4900590;29;20032;-69
2022/11/23 12:32:06;;;;;;;18.25;8.82;;;12.00;99.90;;;;;;4825380;29;20526;-72
2022/11/23 12:34:54;;;;;;;4.63;1.48;;;11.90;99.90;;;;;;4899649;29;20029;-71
2022/11/23 12:37:58;;;;;;;7.32;1.50;;;11.90;99.90;;;;;;4900290;29;20523;-72
2022/11/23 12:41:09;;;;;;;5.40;1.65;;;11.80;99.90;;;;;;4845733;29;20040;-71
2022/11/23 12:43:46;;;;;;;53.92;30.00;;;11.90;99.90;;;;;;4887997;29;20414;-70
2022/11/23 12:46:44;;;;;;;24.23;11.57;;;12.00;99.90;;;;;;4900974;29;20028;-70
2022/11/23 12:49:15;;;;;;;15.57;6.35;;;12.00;99.90;;;;;;4900942;29;20044;-71
2022/11/23 12:51:57;;;;;;;17.58;7.72;;;11.90;99.90;;;;;;4899554;29;20342;-71
2022/11/23 12:54:35;;;;;;;8.30;2.05;;;11.90;99.90;;;;;;4900078;29;20111;-72
2022/11/23 12:57:08;;;;;;;5.63;1.23;;;11.90;99.90;;;;;;4901327;29;20031;-73
2022/11/23 12:59:45;;;;;;;5.50;1.35;;;11.80;99.90;;;;;;4902670;29;20032;-73
2022/11/23 13:02:35;;;;;;;5.15;1.38;;;11.80;99.90;;;;;;4900709;29;20031;-74
2022/11/23 13:05:11;;;;;;;6.90;1.45;;;11.80;99.90;;;;;;4901114;29;20084;-72
2022/11/23 13:07:45;;;;;;;5.90;1.00;;;11.60;99.90;;;;;;4900166;29;20055;-72
2022/11/23 13:10:41;;;;;;;6.18;1.02;;;11.70;99.90;;;;;;4898939;29;20051;-67
2022/11/23 13:13:20;;;;;;;7.10;1.33;;;11.70;99.90;;;;;;4890282;29;20032;-69
2022/11/23 13:16:02;;;;;;;5.93;1.38;;;11.60;99.90;;;;;;4898873;29;20029;-67
2022/11/23 13:18:37;;;;;;;7.07;1.25;;;11.70;99.90;;;;;;4899088;29;20028;-71
2022/11/23 13:21:33;;;;;;;8.38;2.25;;;11.60;99.90;;;;;;4899046;29;20408;-68
2022/11/23 13:23:59;;;;;;;8.55;1.30;;;11.50;99.90;;;;;;4899073;29;20493;-68
2022/11/23 13:26:32;;;;;;;7.07;1.70;;;11.60;99.90;;;;;;4899108;29;20036;-67
2022/11/23 13:29:00;;;;;;;4.05;1.02;;;11.60;99.90;;;;;;4898915;29;20406;-68
2022/11/23 13:31:34;;;;;;;7.50;1.25;;;11.50;99.90;;;;;;4897928;29;20029;-69
2022/11/23 13:34:02;;;;;;;4.72;1.45;;;11.50;99.90;;;;;;4898889;29;20080;-69
2022/11/23 13:36:37;;;;;;;4.38;1.20;;;11.30;99.90;;;;;;4898785;29;20068;-69
2022/11/23 13:39:03;;;;;;;6.15;1.40;;;11.20;99.90;;;;;;4900502;29;20111;-68
2022/11/23 13:41:37;;;;;;;6.95;1.27;;;11.10;99.90;;;;;;4898832;29;20025;-67
2022/11/23 13:44:21;;;;;;;4.28;1.40;;;11.10;99.90;;;;;;4883946;29;20037;-68
2022/11/23 13:47:09;;;;;;;4.43;1.42;;;11.20;99.90;;;;;;4896504;29;20035;-68
2022/11/23 13:49:47;;;;;;;4.07;1.45;;;11.30;99.90;;;;;;4879543;29;20025;-69
2022/11/23 13:52:24;;;;;;;4.70;1.67;;;11.20;99.90;;;;;;4881429;29;20157;-70
2022/11/23 13:55:01;;;;;;;4.55;1.58;;;11.40;99.90;;;;;;4879642;29;20339;-72
2022/11/23 13:57:27;;;;;;;5.50;1.00;;;11.40;99.90;;;;;;4879454;29;20155;-72
2022/11/23 13:59:52;;;;;;;6.10;1.48;;;11.40;99.90;;;;;;4880663;29;20072;-70
2022/11/23 14:02:28;;;;;;;3.47;1.27;;;11.50;99.90;;;;;;4880584;29;20109;-71
2022/11/23 14:05:32;;;;;;;5.10;0.80;;;11.40;99.90;;;;;;4880226;29;20025;-72
2022/11/23 14:08:00;;;;;;;2.85;0.98;;;11.30;99.90;;;;;;4881525;29;20036;-71
2022/11/23 14:10:30;;;;;;;7.38;1.30;;;11.30;99.90;;;;;;4886163;29;20482;-73
2022/11/23 14:13:17;;;;;;;4.28;1.40;;;11.20;99.90;;;;;;4894816;29;20486;-72
2022/11/23 14:15:51;;;;;;;6.45;1.90;;;11.10;99.90;;;;;;4880934;29;20043;-72
2022/11/23 14:18:32;;;;;;;6.68;1.40;;;11.20;99.90;;;;;;4880606;29;20071;-72
2022/11/23 14:21:16;;;;;;;3.58;1.00;;;11.40;99.90;;;;;;4879510;29;20081;-69
2022/11/23 14:24:04;;;;;;;7.55;1.40;;;11.30;99.90;;;;;;4895844;29;20101;-68
2022/11/23 14:27:08;;;;;;;7.03;1.17;;;11.30;99.90;;;;;;4897454;29;20046;-70
2022/11/23 14:29:42;;;;;;;6.88;1.13;;;11.30;99.90;;;;;;4878965;29;20067;-67
2022/11/23 14:32:24;;;;;;;4.32;1.20;;;11.20;99.90;;;;;;4879525;29;20029;-69
2022/11/23 14:35:13;;;;;;;3.38;1.17;;;11.10;99.90;;;;;;4879995;29;20021;-69
2022/11/23 14:38:24;;;;;;;7.18;1.45;;;11.10;99.90;;;;;;4885725;29;20482;-70
2022/11/23 14:41:07;;;;;;;3.45;1.02;;;11.10;99.90;;;;;;4897295;29;20226;-70
2022/11/23 14:43:35;;;;;;;1.55;0.90;;;11.10;99.90;;;;;;4898779;29;20028;-70
2022/11/23 14:46:06;;;;;;;2.83;1.17;;;11.10;99.90;;;;;;4898515;29;20047;-70
2022/11/23 14:48:33;;;;;;;2.03;1.10;;;11.00;99.90;;;;;;4881948;29;20017;-68
2022/11/23 14:51:09;;;;;;;4.60;1.13;;;11.00;99.90;;;;;;4902279;29;20024;-69
2022/11/23 14:53:44;;;;;;;3.03;1.33;;;11.00;99.90;;;;;;4887457;29;20035;-70
2022/11/23 14:56:33;;;;;;;2.35;1.00;;;11.00;99.90;;;;;;4879290;29;20262;-70
2022/11/23 14:59:24;;;;;;;5.82;1.15;;;10.90;99.90;;;;;;4880331;29;20041;-70
2022/11/23 15:02:10;;;;;;;2.65;1.10;;;10.90;99.90;;;;;;4880594;29;20021;-70
2022/11/23 15:04:56;;;;;;;3.00;1.02;;;10.90;99.90;;;;;;4895289;29;20044;-70
2022/11/23 15:07:27;;;;;;;2.33;1.10;;;10.90;99.90;;;;;;4887213;29;20033;-71
2022/11/23 15:10:17;;;;;;;1.77;1.00;;;10.80;99.90;;;;;;4886733;29;20033;-71
2022/11/23 15:12:47;;;;;;;3.88;1.00;;;10.90;99.90;;;;;;4887607;29;20032;-68
2022/11/23 15:15:22;;;;;;;3.00;1.20;;;10.90;99.90;;;;;;4897229;29;20091;-71
2022/11/23 15:17:55;;;;;;;4.47;1.05;;;10.90;99.90;;;;;;4892593;29;20351;-71
2022/11/23 15:20:31;;;;;;;2.65;1.00;;;10.90;99.90;;;;;;4879885;29;20029;-72
2022/11/23 15:22:57;;;;;;;4.18;1.38;;;10.80;99.90;;;;;;4878723;29;20036;-69
2022/11/23 15:25:23;;;;;;;3.17;1.20;;;10.70;99.90;;;;;;4880084;29;20029;-68
2022/11/23 15:27:48;;;;;;;2.30;1.00;;;10.80;99.90;;;;;;4879906;29;20157;-71
2022/11/23 15:30:40;;;;;;;2.80;0.87;;;10.70;99.90;;;;;;4895476;29;20115;-70
2022/11/23 15:33:10;;;;;;;2.65;1.08;;;10.70;99.90;;;;;;4893421;29;20044;-69
2022/11/23 15:35:38;;;;;;;4.47;1.25;;;10.60;99.90;;;;;;4897222;29;20035;-69
2022/11/23 15:38:09;;;;;;;2.47;0.95;;;10.60;99.90;;;;;;4897015;29;20040;-72
2022/11/23 15:40:36;;;;;;;1.83;0.80;;;10.70;99.90;;;;;;4897189;29;20028;-68
2022/11/23 15:43:01;;;;;;;;;;;10.70;99.90;;;;;;4895070;29;20116;-69
2022/11/23 15:45:40;;;;;;;3.00;1.15;;;10.70;99.90;;;;;;4889163;29;19954;-71
2022/11/23 15:48:33;;;;;;;2.25;1.10;;;10.70;99.90;;;;;;4897557;29;20458;-69
2022/11/23 15:50:59;;;;;;;3.58;1.60;;;10.70;99.90;;;;;;4888117;29;20040;-71
2022/11/23 15:53:28;;;;;;;2.42;1.20;;;10.80;99.90;;;;;;4886524;29;20029;-70
2022/11/23 15:56:02;;;;;;;4.72;1.50;;;10.70;99.90;;;;;;4894304;29;20108;-71
2022/11/23 15:58:28;;;;;;;3.90;1.42;;;10.70;99.90;;;;;;4880702;29;20033;-71
2022/11/23 16:01:10;;;;;;;4.13;1.92;;;10.80;99.90;;;;;;4895156;29;20073;-71
2022/11/23 16:03:39;;;;;;;3.67;1.70;;;10.80;99.90;;;;;;4885305;29;20040;-70
2022/11/23 16:06:16;;;;;;;3.22;1.40;;;10.70;99.90;;;;;;4879339;29;20026;-70
2022/11/23 16:08:41;;;;;;;3.78;1.63;;;10.70;99.90;;;;;;4879219;29;20029;-71
2022/11/23 16:11:27;;;;;;;5.37;1.77;;;10.70;99.90;;;;;;4877950;29;20033;-70
2022/11/23 16:14:28;;;;;;;5.53;1.85;;;10.80;99.90;;;;;;4887509;29;20029;-73
2022/11/23 16:17:15;;;;;;;3.63;1.45;;;10.70;99.90;;;;;;4882786;29;20128;-74
2022/11/23 16:19:46;;;;;;;5.75;1.58;;;10.80;99.90;;;;;;4884814;29;20067;-71
2022/11/23 16:22:19;;;;;;;4.55;1.52;;;10.80;99.90;;;;;;4896760;29;20084;-72
2022/11/23 16:24:48;;;;;;;4.53;1.40;;;10.70;99.90;;;;;;4887289;29;20039;-73
2022/11/23 16:27:14;;;;;;;5.38;1.60;;;10.70;99.90;;;;;;4899294;29;20035;-72
2022/11/23 16:29:40;;;;;;;5.05;1.90;;;10.60;99.90;;;;;;4902406;29;20071;-73
2022/11/23 16:32:24;;;;;;;4.53;1.60;;;10.50;99.90;;;;;;4901403;29;20060;-74
2022/11/23 16:34:50;;;;;;;5.55;1.55;;;10.30;99.90;;;;;;4902175;29;20040;-72
2022/11/23 16:37:16;;;;;;;4.18;1.30;;;10.20;99.90;;;;;;4901964;29;20033;-74
2022/11/23 16:39:41;;;;;;;3.20;1.40;;;10.10;99.90;;;;;;4900641;29;20029;-70
2022/11/23 16:42:15;;;;;;;5.47;1.50;;;9.90;99.90;;;;;;4899682;29;20069;-69
2022/11/23 16:44:41;;;;;;;7.32;2.10;;;9.80;99.90;;;;;;4900900;29;20445;-66
2022/11/23 16:47:22;;;;;;;2.92;1.45;;;9.80;99.90;;;;;;4901014;29;20092;-68
2022/11/23 16:49:48;;;;;;;21.83;2.67;;;9.70;99.90;;;;;;4899379;29;20048;-68
2022/11/23 16:52:13;;;;;;;4.90;2.30;;;9.70;99.90;;;;;;4901030;29;20393;-68
2022/11/23 16:54:39;;;;;;;6.37;2.03;;;9.70;99.90;;;;;;4900026;29;20482;-67
2022/11/23 16:57:04;;;;;;;5.50;1.97;;;9.50;99.90;;;;;;4899684;29;20103;-69
2022/11/23 16:59:30;;;;;;;3.63;1.85;;;9.40;99.90;;;;;;4901448;29;20032;-68
2022/11/23 17:01:56;;;;;;;6.22;1.90;;;9.40;99.90;;;;;;4900633;29;20040;-68
2022/11/23 17:04:22;;;;;;;8.35;1.95;;;9.30;99.90;;;;;;4900608;29;20028;-69
2022/11/23 17:06:48;;;;;;;4.40;1.50;;;9.30;99.90;;;;;;4904407;29;20486;-70
2022/11/23 17:09:14;;;;;;;7.05;1.70;;;9.30;99.90;;;;;;4881994;29;20032;-71
2022/11/23 17:11:43;;;;;;;5.27;2.23;;;9.20;99.90;;;;;;4890183;29;20041;-70
2022/11/23 17:14:14;;;;;;;3.85;1.50;;;9.00;99.90;;;;;;4933019;23;20043;-67
2022/11/23 17:16:41;;;;;;;4.82;1.90;;;8.80;99.90;;;;;;4878020;29;20029;-67
2022/11/23 17:19:14;;;;;;;5.20;1.70;;;8.80;99.90;;;;;;4881276;29;20510;-67
2022/11/23 17:21:40;;;;;;;7.93;2.45;;;8.70;99.90;;;;;;4882109;29;20029;-68
2022/11/23 17:24:05;;;;;;;9.37;4.23;;;8.60;99.90;;;;;;4881382;29;20040;-68
2022/11/23 17:26:46;;;;;;;7.13;3.37;;;8.60;99.90;;;;;;4895888;29;20418;-71
2022/11/23 17:29:17;;;;;;;5.43;1.40;;;8.50;99.90;;;;;;4895726;29;20047;-69
2022/11/23 17:31:44;;;;;;;4.43;1.88;;;8.50;99.90;;;;;;4881997;29;20032;-71
2022/11/23 17:34:10;;;;;;;;;;;8.40;99.90;;;;;;4881545;29;20085;-71
2022/11/23 17:36:36;;;;;;;4.30;1.45;;;8.40;99.90;;;;;;4885406;29;19966;-68
2022/11/23 17:39:02;;;;;;;3.33;1.60;;;8.50;99.90;;;;;;4879120;29;20033;-69
2022/11/23 17:41:27;;;;;;;9.13;1.77;;;8.50;99.90;;;;;;4860956;29;20490;-69
2022/11/23 17:43:53;;;;;;;3.53;1.73;;;8.40;99.90;;;;;;4863578;29;20026;-70
2022/11/23 17:46:22;;;;;;;5.53;1.98;;;8.40;99.90;;;;;;4881875;29;20269;-70
2022/11/23 17:48:53;;;;;;;5.03;1.52;;;8.40;99.90;;;;;;4881073;29;20032;-68
2022/11/23 17:51:18;;;;;;;3.03;1.40;;;8.50;99.90;;;;;;4880902;29;20029;-69
2022/11/23 17:53:46;;;;;;;3.20;1.30;;;8.40;99.90;;;;;;4880611;29;20525;-69
2022/11/23 17:56:21;;;;;;;4.30;1.98;;;8.40;99.90;;;;;;4881019;29;20475;-70
2022/11/23 17:58:47;;;;;;;7.75;1.90;;;8.40;99.90;;;;;;4881013;29;20041;-70
2022/11/23 18:01:15;;;;;;;4.78;1.92;;;8.40;99.90;;;;;;4879757;29;20399;-72
2022/11/23 18:03:42;;;;;;;6.43;2.15;;;8.40;99.90;;;;;;4880935;29;20432;-71
2022/11/23 18:06:16;;;;;;;5.57;2.20;;;8.30;99.90;;;;;;4879809;29;20156;-71
2022/11/23 18:08:42;;;;;;;3.15;1.63;;;8.30;99.90;;;;;;4879732;29;20033;-70
2022/11/23 18:11:08;;;;;;;8.18;1.80;;;8.30;99.90;;;;;;4874960;29;20525;-72
2022/11/23 18:13:34;;;;;;;4.67;2.37;;;8.20;99.90;;;;;;4862308;29;20034;-72
2022/11/23 18:16:00;;;;;;;6.05;2.35;;;8.20;99.90;;;;;;4879418;29;20289;-72
2022/11/23 18:18:25;;;;;;;6.57;2.40;;;8.20;99.90;;;;;;4880832;29;20029;-72